Etusivu
METAR-TAF:

METAR-TAF

Lentoasemat :

Vientiane, Laos

Leveyspiiri: 17-57N, Pituuspiiri: 102-34E, korkeus merenpinnasta: 171 m

Tämänhetkinen sää

Tämä raportti tehtiin 8 tuntia ja 10 minuuttia sitten, kello 13.00 UTC
Tuuli 2 kn etelästä
Lämpötila 24°C
Kosteus 61%
Ilmanpaine 1004 hPa
Näkyvyys: 4000 m
utua

METAR: VLVT 261300Z 18002KT 4000 BR NSC 24/16 Q1004 NOSIG

Aika: 04:10 (21:10 UTC)

Sääennuste

Tämä raportti tehtiin 4 tuntia ja 10 minuuttia sitten, kello 17.00 UTC
Ennuste voimassa 26. päivästä klo 18 UTC - 27. päivään klo 18 UTC
Tuuli 4 kn pohjoisen/luoteesta
Näkyvyys: 4000 m
Muutamia pilviä 5000 ft:n korkeudessa
Muutamia pilviä 10000 ft:n korkeudessa
utua

TAF: VLVT 261700Z 2618/2718 34004KT 4000 BR FEW050 FEW100

Säähavainnot ja -ennusteet yli 4000 lentoasemalta (METAR- ja TAF-raportit).

Käytössä olevat sääasemat on merkitty karttaan keltaisilla ja punaisilla pisteillä.

Aseta hiiri pisteen päälle nähdäksesi sääaseman nimen.

Klikkaa sitten nähdäksesi säähavainnot ja -ennusteet.

Kartan vaihtaminen: klikkaa mustalla rastilla varustettuja vihreitä pisteitä, niin voit zoomata sisään; viivalla varustettua vihreää pistettä, niin voit zoomata ulos tai vihreitä nuolia, niin pääset viereisille kartoille.


METAR-TAF: